createdAt,value
2018-03-24T00:01:58.427Z,92.70
2018-03-24T00:04:02.030Z,92.90
2018-03-24T00:06:05.611Z,93.00
2018-03-24T00:08:09.980Z,92.60
2018-03-24T00:10:14.322Z,92.90
2018-03-24T00:12:17.969Z,92.90
2018-03-24T00:14:21.481Z,92.30
2018-03-24T00:16:25.026Z,92.20
2018-03-24T00:18:29.556Z,92.50
2018-03-24T00:20:33.150Z,92.30
2018-03-24T00:22:36.749Z,91.60
2018-03-24T00:24:40.308Z,91.90
2018-03-24T00:26:44.662Z,91.70
2018-03-24T00:28:48.235Z,91.60
2018-03-24T00:30:52.571Z,91.70
2018-03-24T00:32:56.113Z,91.70
2018-03-24T00:35:00.014Z,91.80
2018-03-24T00:37:03.557Z,92.10
2018-03-24T00:39:07.892Z,91.60
2018-03-24T00:41:11.474Z,91.60
2018-03-24T00:43:15.067Z,91.60
2018-03-24T00:45:19.424Z,92.60
2018-03-24T00:47:23.040Z,92.50
2018-03-24T00:49:26.584Z,92.60
2018-03-24T00:51:30.095Z,92.90
2018-03-24T00:53:33.642Z,93.10
2018-03-24T00:55:37.186Z,93.40
2018-03-24T00:57:41.150Z,93.30
2018-03-24T00:59:45.450Z,93.30
2018-03-24T01:01:48.981Z,93.20
2018-03-24T01:03:52.567Z,93.30
2018-03-24T01:05:56.119Z,93.60
2018-03-24T01:08:00.475Z,93.80
2018-03-24T01:10:05.959Z,94.00
2018-03-24T01:12:09.520Z,93.90
2018-03-24T01:14:13.837Z,93.70
2018-03-24T01:16:18.447Z,93.90
2018-03-24T01:18:22.013Z,93.90
2018-03-24T01:20:25.929Z,94.00
2018-03-24T01:22:30.257Z,93.80
2018-03-24T01:24:33.780Z,93.70
2018-03-24T01:26:37.382Z,93.90
2018-03-24T01:28:40.914Z,94.40
2018-03-24T01:30:45.320Z,94.20
2018-03-24T01:32:48.889Z,94.20
2018-03-24T01:34:52.414Z,94.20
2018-03-24T01:36:55.948Z,94.30
2018-03-24T01:38:59.544Z,94.10
2018-03-24T01:41:03.085Z,94.00
2018-03-24T01:43:06.642Z,94.10
2018-03-24T01:45:10.231Z,93.90
2018-03-24T01:47:13.793Z,93.80
2018-03-24T01:49:17.377Z,93.80
2018-03-24T01:51:20.930Z,93.90
2018-03-24T01:56:01.747Z,93.50
2018-03-24T01:58:05.221Z,93.50
2018-03-24T02:00:08.717Z,93.50
2018-03-24T02:02:12.231Z,93.60
2018-03-24T02:04:15.721Z,93.70
2018-03-24T02:06:19.270Z,93.70
2018-03-24T02:08:23.499Z,93.90
2018-03-24T02:10:26.997Z,93.80
2018-03-24T02:12:30.525Z,93.60
2018-03-24T02:14:33.990Z,93.60
2018-03-24T02:16:37.445Z,93.30
2018-03-24T02:18:40.972Z,93.10
2018-03-24T02:20:45.283Z,93.00
2018-03-24T02:22:48.811Z,92.90
2018-03-24T02:24:52.328Z,92.60
2018-03-24T02:26:55.782Z,92.60
2018-03-24T02:28:59.286Z,92.50
2018-03-24T02:31:02.826Z,92.60
2018-03-24T02:33:06.302Z,93.00
2018-03-24T02:35:09.796Z,93.20
2018-03-24T02:37:13.274Z,93.50
2018-03-24T02:39:16.805Z,93.70
2018-03-24T02:41:20.255Z,93.90
2018-03-24T02:43:23.700Z,94.10
2018-03-24T02:45:36.818Z,94.40
2018-03-24T02:47:42.178Z,94.30
2018-03-24T02:49:45.765Z,94.20
2018-03-24T02:51:49.374Z,94.10
2018-03-24T02:53:52.918Z,94.20
2018-03-24T02:55:56.850Z,94.00
2018-03-24T02:58:01.171Z,93.90
2018-03-24T03:00:06.203Z,94.10
2018-03-24T03:02:10.533Z,94.00
2018-03-24T03:04:14.089Z,94.00
2018-03-24T03:06:18.422Z,94.60
2018-03-24T03:08:22.752Z,94.70
2018-03-24T03:10:26.353Z,94.70
2018-03-24T03:12:29.885Z,94.60
2018-03-24T03:14:33.423Z,94.70
2018-03-24T03:16:37.763Z,94.80
2018-03-24T03:18:41.364Z,94.70
2018-03-24T03:20:44.925Z,94.90
2018-03-24T03:22:48.544Z,94.80
2018-03-24T03:24:52.125Z,94.80
2018-03-24T03:26:55.729Z,94.80
2018-03-24T03:28:59.302Z,94.90
2018-03-24T03:31:03.829Z,94.70
2018-03-24T03:33:08.217Z,95.10
2018-03-24T03:35:12.564Z,95.20
2018-03-24T03:37:16.890Z,95.20
2018-03-24T03:39:21.200Z,95.00
2018-03-24T03:41:25.122Z,95.00
2018-03-24T03:43:28.751Z,95.00
2018-03-24T03:45:32.297Z,95.00
2018-03-24T03:47:35.873Z,94.90
2018-03-24T03:49:40.221Z,95.00
2018-03-24T03:51:44.104Z,95.00
2018-03-24T03:53:47.677Z,95.00
2018-03-24T03:55:52.048Z,95.00
2018-03-24T03:57:55.678Z,95.00
2018-03-24T03:59:59.277Z,95.00
2018-03-24T04:02:02.854Z,95.30
2018-03-24T04:04:06.475Z,95.10
2018-03-24T04:06:10.834Z,95.60
2018-03-24T04:08:14.424Z,95.30
2018-03-24T04:10:17.938Z,95.00
2018-03-24T04:12:21.486Z,95.50
2018-03-24T04:14:25.041Z,95.30
2018-03-24T04:16:28.592Z,95.30
2018-03-24T04:18:32.169Z,94.90
2018-03-24T04:20:35.759Z,95.10
2018-03-24T04:22:39.338Z,95.00
2018-03-24T04:24:42.876Z,95.30
2018-03-24T04:26:47.282Z,95.10
2018-03-24T04:28:51.607Z,95.00
2018-03-24T04:30:55.197Z,95.00
2018-03-24T04:32:59.509Z,95.20
2018-03-24T04:35:03.913Z,95.00
2018-03-24T04:37:08.257Z,95.00
2018-03-24T04:39:12.579Z,95.00
2018-03-24T04:41:16.141Z,95.00
2018-03-24T04:43:19.696Z,94.90
2018-03-24T04:45:23.285Z,94.80
2018-03-24T04:47:26.889Z,94.90
2018-03-24T04:49:30.455Z,94.80
2018-03-24T04:51:33.997Z,95.00
2018-03-24T04:53:37.615Z,94.60
2018-03-24T04:55:41.212Z,94.60
2018-03-24T04:57:44.753Z,94.70
2018-03-24T04:59:48.355Z,94.80
2018-03-24T05:01:51.926Z,94.80
2018-03-24T05:03:56.276Z,94.80
2018-03-24T05:05:59.854Z,94.80
2018-03-24T05:08:03.392Z,94.90
2018-03-24T05:10:07.116Z,94.80
2018-03-24T05:12:10.682Z,94.60
2018-03-24T05:14:14.246Z,94.90
2018-03-24T05:16:17.832Z,94.80
2018-03-24T05:18:21.374Z,94.70
2018-03-24T05:20:24.925Z,95.10
2018-03-24T05:22:28.488Z,94.80
2018-03-24T05:24:32.808Z,95.00
2018-03-24T05:26:37.130Z,94.90
2018-03-24T05:28:40.732Z,94.90
2018-03-24T05:30:44.349Z,95.00
2018-03-24T05:32:47.937Z,95.10
2018-03-24T05:34:51.490Z,95.10
2018-03-24T05:36:55.823Z,95.40
2018-03-24T05:39:00.173Z,95.40
2018-03-24T05:41:03.812Z,95.40
2018-03-24T05:43:08.556Z,95.40
2018-03-24T05:45:12.856Z,95.60
2018-03-24T05:47:17.276Z,95.90
2018-03-24T05:49:22.164Z,95.10
2018-03-24T05:51:25.719Z,95.10
2018-03-24T05:53:29.589Z,95.40
2018-03-24T05:55:33.483Z,95.40
2018-03-24T05:57:38.031Z,95.30
2018-03-24T05:59:42.505Z,95.50
2018-03-24T06:01:46.112Z,95.50
2018-03-24T06:03:49.718Z,95.60
2018-03-24T06:05:53.278Z,95.30
2018-03-24T06:07:56.849Z,95.50
2018-03-24T06:10:00.474Z,95.50
2018-03-24T06:12:04.022Z,95.40
2018-03-24T06:14:08.386Z,95.20
2018-03-24T06:16:11.991Z,95.10
2018-03-24T06:18:15.546Z,95.20
2018-03-24T06:20:19.096Z,95.00
2018-03-24T06:22:23.445Z,94.60
2018-03-24T06:24:26.962Z,94.60
2018-03-24T06:26:30.847Z,94.40
2018-03-24T06:28:34.448Z,94.10
2018-03-24T06:30:38.551Z,93.90
2018-03-24T06:32:42.145Z,94.20
2018-03-24T06:34:46.501Z,94.50
2018-03-24T06:37:05.656Z,94.50
2018-03-24T06:39:09.266Z,94.20
2018-03-24T06:41:12.876Z,94.50
2018-03-24T06:43:16.469Z,94.50
2018-03-24T06:45:20.024Z,94.70
2018-03-24T06:47:23.603Z,94.30
2018-03-24T06:49:28.090Z,94.10
2018-03-24T06:51:31.676Z,94.30
2018-03-24T06:53:35.216Z,94.60
2018-03-24T06:55:39.576Z,94.50
2018-03-24T06:57:43.111Z,94.50
2018-03-24T06:59:46.657Z,94.60
2018-03-24T07:01:50.198Z,94.70
2018-03-24T07:03:53.856Z,94.90
2018-03-24T07:05:57.441Z,94.60
2018-03-24T07:08:01.046Z,94.60
2018-03-24T07:10:04.981Z,94.20
2018-03-24T07:12:08.553Z,93.90
2018-03-24T07:14:12.190Z,93.70
2018-03-24T07:16:15.740Z,92.90
2018-03-24T07:18:19.311Z,92.40
2018-03-24T07:20:25.721Z,91.40
2018-03-24T07:22:29.281Z,91.40
2018-03-24T07:24:32.874Z,91.10
2018-03-24T07:26:36.577Z,90.80
2018-03-24T07:28:40.129Z,90.70
2018-03-24T07:30:43.736Z,90.50
2018-03-24T07:32:47.225Z,90.50
2018-03-24T07:34:51.609Z,90.60
2018-03-24T07:36:55.143Z,90.60
2018-03-24T07:38:58.776Z,90.00
2018-03-24T07:41:02.702Z,89.80
2018-03-24T07:43:06.262Z,89.30
2018-03-24T07:45:10.579Z,87.20
2018-03-24T07:47:14.916Z,88.60
2018-03-24T07:49:19.075Z,88.50
2018-03-24T07:51:22.723Z,87.90
2018-03-24T07:53:27.110Z,87.50
2018-03-24T07:55:30.682Z,87.50
2018-03-24T07:57:34.226Z,87.30
2018-03-24T07:59:46.844Z,86.80
2018-03-24T08:01:50.430Z,86.60
2018-03-24T08:03:54.023Z,86.20
2018-03-24T08:05:57.549Z,85.80
2018-03-24T08:08:01.102Z,87.20
2018-03-24T08:10:06.036Z,87.00
2018-03-24T08:12:09.608Z,86.90
2018-03-24T08:14:13.930Z,87.00
2018-03-24T08:16:20.654Z,87.00
2018-03-24T08:18:24.192Z,86.60
2018-03-24T08:20:28.692Z,86.40
2018-03-24T08:22:33.143Z,86.50
2018-03-24T08:24:39.638Z,86.20
2018-03-24T08:26:44.854Z,85.40
2018-03-24T08:28:49.150Z,85.50
2018-03-24T08:30:53.766Z,85.10
2018-03-24T08:32:57.899Z,85.00
2018-03-24T08:35:02.382Z,84.60
2018-03-24T08:37:06.397Z,83.30
2018-03-24T08:39:10.602Z,84.50
2018-03-24T08:41:15.530Z,83.60
2018-03-24T08:43:19.997Z,85.00
2018-03-24T08:45:25.843Z,84.60
2018-03-24T08:47:29.836Z,84.60
2018-03-24T08:49:33.400Z,84.30
2018-03-24T08:51:37.223Z,84.30
2018-03-24T08:53:40.861Z,84.20
2018-03-24T08:55:44.936Z,84.40
2018-03-24T08:57:49.136Z,84.50
2018-03-24T08:59:53.004Z,84.80
2018-03-24T09:01:57.375Z,81.50
2018-03-24T09:04:00.939Z,82.00
2018-03-24T09:06:04.831Z,82.90
2018-03-24T09:08:08.690Z,83.90
2018-03-24T09:10:12.878Z,83.60
2018-03-24T09:12:17.101Z,83.80
2018-03-24T09:14:21.692Z,84.30
2018-03-24T09:16:25.809Z,84.00
2018-03-24T09:18:29.836Z,83.80
2018-03-24T09:20:33.421Z,82.70
2018-03-24T09:22:37.775Z,83.60
2018-03-24T09:24:41.374Z,83.60
2018-03-24T09:26:46.201Z,83.80
2018-03-24T09:28:49.753Z,83.80
2018-03-24T09:30:55.020Z,82.30
2018-03-24T09:32:58.662Z,82.10
2018-03-24T09:35:03.166Z,82.20
2018-03-24T09:37:07.861Z,80.50
2018-03-24T09:39:12.376Z,80.60
2018-03-24T09:41:16.901Z,80.40
2018-03-24T09:43:20.469Z,81.70
2018-03-24T09:45:24.716Z,83.20
2018-03-24T09:47:28.277Z,82.00
2018-03-24T09:49:31.929Z,79.30
2018-03-24T09:51:36.282Z,81.90
2018-03-24T09:53:39.783Z,81.90
2018-03-24T09:55:43.361Z,78.60
2018-03-24T09:57:47.485Z,80.90
2018-03-24T09:59:51.001Z,80.40
2018-03-24T10:01:54.542Z,79.10
2018-03-24T10:03:58.144Z,80.20
2018-03-24T10:06:02.485Z,80.80
2018-03-24T10:08:06.493Z,80.80
2018-03-24T10:10:10.058Z,77.50
2018-03-24T10:12:13.655Z,79.90
2018-03-24T10:14:17.423Z,80.50
2018-03-24T10:16:20.964Z,77.90
2018-03-24T10:18:24.538Z,79.50
2018-03-24T10:23:36.166Z,79.70
2018-03-24T10:25:39.673Z,79.70
2018-03-24T10:27:43.198Z,77.00
2018-03-24T10:29:46.671Z,77.00
2018-03-24T10:31:50.132Z,79.50
2018-03-24T10:33:59.185Z,77.10
2018-03-24T10:36:02.751Z,74.80
2018-03-24T10:38:06.272Z,79.60
2018-03-24T10:40:09.811Z,79.10
2018-03-24T10:42:13.280Z,78.30
2018-03-24T10:44:16.775Z,79.20
2018-03-24T10:46:20.271Z,76.80
2018-03-24T10:48:23.764Z,79.40
2018-03-24T10:50:27.280Z,78.10
2018-03-24T10:52:30.731Z,78.00
2018-03-24T10:54:34.230Z,76.70
2018-03-24T10:56:37.709Z,76.00
2018-03-24T10:58:41.211Z,76.60
2018-03-24T11:00:50.326Z,70.60
2018-03-24T11:02:53.796Z,74.00
2018-03-24T11:04:57.300Z,78.40
2018-03-24T11:07:00.780Z,72.80
2018-03-24T11:09:04.342Z,77.20
2018-03-24T11:11:07.873Z,67.60
2018-03-24T11:13:12.221Z,71.30
2018-03-24T11:15:15.780Z,71.00
2018-03-24T11:17:19.341Z,74.10
2018-03-24T11:19:22.899Z,77.50
2018-03-24T11:21:26.437Z,75.80
2018-03-24T11:23:30.785Z,73.90
2018-03-24T11:25:34.352Z,74.00
2018-03-24T11:27:37.871Z,70.00
2018-03-24T11:29:42.201Z,64.90
2018-03-24T11:31:46.585Z,64.80
2018-03-24T11:33:50.172Z,64.80
2018-03-24T11:35:53.702Z,73.50
2018-03-24T11:37:58.018Z,73.50
2018-03-24T11:40:02.300Z,73.20
2018-03-24T11:42:05.907Z,72.80
2018-03-24T11:44:09.410Z,66.90
2018-03-24T11:46:12.936Z,68.70
2018-03-24T11:48:16.508Z,68.70
2018-03-24T11:50:20.855Z,71.20
2018-03-24T11:52:25.607Z,71.00
2018-03-24T11:54:47.122Z,75.50
2018-03-24T11:56:50.734Z,75.50
2018-03-24T11:58:54.320Z,73.00
2018-03-24T12:00:57.875Z,65.20
2018-03-24T12:03:01.582Z,63.70
2018-03-24T12:05:06.448Z,64.20
2018-03-24T12:07:10.005Z,64.40
2018-03-24T12:09:13.607Z,73.60
2018-03-24T12:11:17.197Z,66.40
2018-03-24T12:13:20.797Z,62.30
2018-03-24T12:15:24.377Z,65.60
2018-03-24T12:17:28.006Z,69.10
2018-03-24T12:19:31.557Z,62.50
2018-03-24T12:21:35.913Z,60.80
2018-03-24T12:23:39.511Z,60.80
2018-03-24T12:25:43.891Z,61.70
2018-03-24T12:27:55.692Z,65.50
2018-03-24T12:30:01.382Z,65.50
2018-03-24T12:32:06.198Z,69.00
2018-03-24T12:34:10.553Z,68.80
2018-03-24T12:36:15.508Z,73.00
2018-03-24T12:38:19.073Z,72.90
2018-03-24T12:40:23.276Z,72.50
2018-03-24T12:42:27.141Z,64.80
2018-03-24T12:44:32.021Z,66.30
2018-03-24T12:46:36.618Z,65.60
2018-03-24T12:48:40.444Z,65.60
2018-03-24T12:50:45.172Z,65.00
2018-03-24T12:52:48.757Z,65.10
2018-03-24T12:54:52.842Z,66.60
2018-03-24T12:56:56.453Z,64.50
2018-03-24T12:59:01.321Z,68.60
2018-03-24T13:01:05.535Z,68.70
2018-03-24T13:03:11.364Z,67.20
2018-03-24T13:05:15.606Z,67.20
2018-03-24T13:07:19.488Z,64.70
2018-03-24T13:09:24.001Z,65.20
2018-03-24T13:11:33.963Z,65.00
2018-03-24T13:13:39.952Z,61.90
2018-03-24T13:15:44.700Z,63.60
2018-03-24T13:17:49.626Z,69.00
2018-03-24T13:19:53.884Z,68.90
2018-03-24T13:21:58.080Z,68.50
2018-03-24T13:24:02.242Z,62.90
2018-03-24T13:26:06.004Z,60.00
2018-03-24T13:28:09.897Z,63.10
2018-03-24T13:30:13.977Z,64.10
2018-03-24T13:32:18.682Z,66.60
2018-03-24T13:34:22.842Z,66.60
2018-03-24T13:36:27.089Z,63.20
2018-03-24T13:38:33.037Z,67.60
2018-03-24T13:40:36.717Z,67.50
2018-03-24T13:42:40.285Z,66.90
2018-03-24T13:44:45.616Z,60.80
2018-03-24T13:46:49.986Z,67.60
2018-03-24T13:48:54.397Z,66.80
2018-03-24T13:50:57.967Z,66.80
2018-03-24T13:53:01.915Z,69.20
2018-03-24T13:55:05.569Z,65.50
2018-03-24T13:57:09.159Z,67.90
2018-03-24T13:59:12.888Z,67.70
2018-03-24T14:01:18.304Z,67.80
2018-03-24T14:03:22.653Z,67.80
2018-03-24T14:05:26.241Z,68.30
2018-03-24T14:07:30.144Z,68.00
2018-03-24T14:09:34.058Z,69.60
2018-03-24T14:11:37.731Z,68.70
2018-03-24T14:13:42.045Z,67.90
2018-03-24T14:15:45.628Z,67.20
2018-03-24T14:17:49.214Z,67.30
2018-03-24T14:19:52.818Z,66.10
2018-03-24T14:21:56.417Z,68.10
2018-03-24T14:24:00.007Z,68.80
2018-03-24T14:26:03.626Z,68.80
2018-03-24T14:28:07.199Z,69.70
2018-03-24T14:30:10.754Z,70.00
2018-03-24T14:32:14.673Z,71.80
2018-03-24T14:34:19.027Z,71.70
2018-03-24T14:36:22.569Z,71.60
2018-03-24T14:38:26.156Z,72.60
2018-03-24T14:40:29.729Z,68.60
2018-03-24T14:42:33.256Z,71.10
2018-03-24T14:44:36.799Z,69.80
2018-03-24T14:46:40.370Z,68.70
2018-03-24T14:48:44.680Z,68.70
2018-03-24T14:50:48.248Z,68.60
2018-03-24T14:52:52.577Z,68.20
2018-03-24T14:54:56.911Z,73.90
2018-03-24T14:57:00.465Z,73.90
2018-03-24T14:59:04.066Z,69.20
2018-03-24T15:01:07.670Z,69.20
2018-03-24T15:03:11.277Z,67.60
2018-03-24T15:05:15.726Z,68.70
2018-03-24T15:07:19.292Z,68.80
2018-03-24T15:09:22.865Z,70.30
2018-03-24T15:11:26.441Z,68.40
2018-03-24T15:13:30.059Z,67.70
2018-03-24T15:15:33.572Z,68.70
2018-03-24T15:17:37.940Z,71.80
2018-03-24T15:19:41.521Z,71.60
2018-03-24T15:21:45.081Z,70.70
2018-03-24T15:23:49.464Z,68.30
2018-03-24T15:25:53.027Z,68.00
2018-03-24T15:27:56.596Z,68.40
2018-03-24T15:30:12.801Z,69.90
2018-03-24T15:32:28.258Z,69.90
2018-03-24T15:34:43.546Z,70.60
2018-03-24T15:36:47.157Z,68.30
2018-03-24T15:38:50.708Z,69.50
2018-03-24T15:40:54.312Z,70.10
2018-03-24T15:42:58.668Z,70.50
2018-03-24T15:45:02.212Z,70.70
2018-03-24T15:47:06.604Z,69.60
2018-03-24T15:49:11.914Z,69.20
2018-03-24T15:51:16.163Z,68.70
2018-03-24T15:53:19.704Z,67.80
2018-03-24T15:55:23.301Z,69.70
2018-03-24T15:57:27.689Z,69.90
2018-03-24T15:59:31.235Z,69.80
2018-03-24T16:01:34.838Z,69.70
2018-03-24T16:03:38.425Z,70.20
2018-03-24T16:05:42.029Z,69.70
2018-03-24T16:07:45.594Z,69.20
2018-03-24T16:09:49.925Z,68.70
2018-03-24T16:11:53.465Z,68.60
2018-03-24T16:13:57.071Z,70.50
2018-03-24T16:16:00.656Z,69.80
2018-03-24T16:18:05.054Z,71.20
2018-03-24T16:20:08.676Z,71.10
2018-03-24T16:22:12.228Z,69.40
2018-03-24T16:24:15.789Z,68.80
2018-03-24T16:26:19.366Z,67.50
2018-03-24T16:28:22.932Z,69.10
2018-03-24T16:30:26.524Z,69.90
2018-03-24T16:32:30.093Z,67.60
2018-03-24T16:34:34.426Z,70.20
2018-03-24T16:36:38.021Z,70.30
2018-03-24T16:38:41.534Z,72.50
2018-03-24T16:40:45.080Z,71.70
2018-03-24T16:42:48.668Z,70.80
2018-03-24T16:44:52.975Z,71.70
2018-03-24T16:46:56.573Z,71.20
2018-03-24T16:49:00.119Z,70.50
2018-03-24T16:51:03.673Z,71.80
2018-03-24T16:53:07.304Z,73.50
2018-03-24T16:55:10.882Z,73.40
2018-03-24T16:57:15.165Z,72.10
2018-03-24T16:59:18.720Z,73.20
2018-03-24T17:01:22.264Z,74.70
2018-03-24T17:03:25.766Z,73.80
2018-03-24T17:05:30.112Z,75.30
2018-03-24T17:07:33.686Z,75.30
2018-03-24T17:09:38.033Z,75.00
2018-03-24T17:11:41.607Z,75.10
2018-03-24T17:13:45.136Z,76.10
2018-03-24T17:15:48.770Z,75.70
2018-03-24T17:17:52.308Z,74.70
2018-03-24T17:19:55.872Z,75.60
2018-03-24T17:21:59.452Z,76.90
2018-03-24T17:24:03.001Z,76.00
2018-03-24T17:26:06.595Z,74.50
2018-03-24T17:28:10.106Z,76.40
2018-03-24T17:30:13.732Z,76.90
2018-03-24T17:32:17.341Z,77.00
2018-03-24T17:34:21.648Z,74.30
2018-03-24T17:36:25.615Z,74.30
2018-03-24T17:38:29.191Z,76.30
2018-03-24T17:40:32.744Z,76.30
2018-03-24T17:42:36.354Z,76.90
2018-03-24T17:44:39.930Z,77.20
2018-03-24T17:46:43.482Z,77.40
2018-03-24T17:48:47.062Z,76.00
2018-03-24T17:50:50.716Z,76.60
2018-03-24T17:52:54.251Z,75.70
2018-03-24T17:54:58.597Z,74.40
2018-03-24T17:57:02.430Z,74.40
2018-03-24T17:59:07.913Z,77.20
2018-03-24T18:01:12.270Z,76.20
2018-03-24T18:03:15.826Z,76.40
2018-03-24T18:05:19.396Z,77.50
2018-03-24T18:07:23.026Z,77.00
2018-03-24T18:09:26.638Z,77.90
2018-03-24T18:11:30.371Z,78.50
2018-03-24T18:13:33.993Z,79.60
2018-03-24T18:15:38.372Z,79.00
2018-03-24T18:17:41.913Z,78.80
2018-03-24T18:19:45.482Z,78.60
2018-03-24T18:21:49.064Z,78.30
2018-03-24T18:23:52.636Z,79.50
2018-03-24T18:25:56.216Z,79.00
2018-03-24T18:28:00.543Z,78.90
2018-03-24T18:30:05.115Z,79.70
2018-03-24T18:32:09.412Z,78.30
2018-03-24T18:34:12.996Z,78.20
2018-03-24T18:36:16.579Z,77.60
2018-03-24T18:38:20.157Z,78.80
2018-03-24T18:40:24.137Z,78.60
2018-03-24T18:42:28.425Z,78.90
2018-03-24T18:44:31.983Z,78.90
2018-03-24T18:46:35.613Z,78.90
2018-03-24T18:48:39.143Z,78.40
2018-03-24T18:50:43.506Z,77.90
2018-03-24T18:52:47.069Z,77.90
2018-03-24T18:54:50.645Z,79.40
2018-03-24T18:56:55.040Z,79.40
2018-03-24T18:58:59.360Z,80.20
2018-03-24T19:01:02.904Z,80.10
2018-03-24T19:03:06.518Z,78.50
2018-03-24T19:05:10.104Z,79.10
2018-03-24T19:07:13.715Z,79.50
2018-03-24T19:09:17.273Z,78.90
2018-03-24T19:11:20.827Z,79.20
2018-03-24T19:13:24.433Z,80.60
2018-03-24T19:15:28.741Z,79.30
2018-03-24T19:17:32.280Z,79.30
2018-03-24T19:19:35.848Z,79.30
2018-03-24T19:21:39.384Z,79.70
2018-03-24T19:23:42.968Z,81.00
2018-03-24T19:25:46.549Z,79.90
2018-03-24T19:27:50.880Z,79.30
2018-03-24T19:29:54.527Z,79.10
2018-03-24T19:31:58.132Z,78.50
2018-03-24T19:34:01.666Z,80.40
2018-03-24T19:36:05.434Z,79.40
2018-03-24T19:38:08.986Z,80.40
2018-03-24T19:40:12.554Z,79.70
2018-03-24T19:42:16.132Z,79.50
2018-03-24T19:44:19.805Z,80.40
2018-03-24T19:46:23.345Z,78.50
2018-03-24T19:48:27.013Z,79.20
2018-03-24T19:50:30.552Z,79.20
2018-03-24T19:52:34.518Z,79.00
2018-03-24T19:54:38.123Z,78.80
2018-03-24T19:56:42.434Z,80.10
2018-03-24T19:58:46.784Z,80.00
2018-03-24T20:00:50.337Z,79.90
2018-03-24T20:02:54.645Z,80.30
2018-03-24T20:04:58.185Z,80.20
2018-03-24T20:07:01.788Z,79.40
2018-03-24T20:09:05.430Z,81.40
2018-03-24T20:11:09.002Z,80.60
2018-03-24T20:13:12.555Z,81.10
2018-03-24T20:15:16.892Z,82.70
2018-03-24T20:17:20.444Z,82.60
2018-03-24T20:19:24.786Z,82.60
2018-03-24T20:21:28.353Z,81.90
2018-03-24T20:23:32.705Z,80.60
2018-03-24T20:25:37.159Z,82.50
2018-03-24T20:27:40.708Z,82.40
2018-03-24T20:29:45.022Z,83.00
2018-03-24T20:31:48.624Z,83.00
2018-03-24T20:33:52.193Z,82.20
2018-03-24T20:35:55.759Z,80.50
2018-03-24T20:37:59.373Z,80.60
2018-03-24T20:40:02.969Z,82.70
2018-03-24T20:42:07.425Z,80.80
2018-03-24T20:44:10.979Z,80.60
2018-03-24T20:46:14.501Z,82.30
2018-03-24T20:48:18.796Z,82.70
2018-03-24T20:50:23.148Z,81.90
2018-03-24T20:52:26.726Z,81.70
2018-03-24T20:54:30.330Z,82.70
2018-03-24T20:56:33.901Z,82.80
2018-03-24T20:58:37.402Z,80.60
2018-03-24T21:00:41.763Z,83.00
2018-03-24T21:02:45.327Z,82.60
2018-03-24T21:04:49.672Z,83.20
2018-03-24T21:06:53.252Z,83.20
2018-03-24T21:08:56.805Z,84.30
2018-03-24T21:11:00.382Z,83.10
2018-03-24T21:13:03.984Z,82.80
2018-03-24T21:15:07.629Z,83.00
2018-03-24T21:17:11.141Z,83.50
2018-03-24T21:19:14.649Z,84.10
2018-03-24T21:21:18.274Z,83.20
2018-03-24T21:23:22.605Z,82.80
2018-03-24T21:25:26.241Z,82.80
2018-03-24T21:27:30.229Z,81.60
2018-03-24T21:29:33.788Z,82.30
2018-03-24T21:31:37.335Z,84.80
2018-03-24T21:33:40.932Z,82.80
2018-03-24T21:35:44.518Z,84.40
2018-03-24T21:37:48.070Z,84.00
2018-03-24T21:39:51.715Z,83.90
2018-03-24T21:41:55.247Z,83.90
2018-03-24T21:43:58.779Z,84.20
2018-03-24T21:46:02.383Z,83.90
2018-03-24T21:48:06.745Z,83.10
2018-03-24T21:50:10.697Z,83.10
2018-03-24T21:52:14.303Z,85.10
2018-03-24T21:54:17.837Z,84.70
2018-03-24T21:56:22.789Z,83.70
2018-03-24T21:58:26.761Z,85.00
2018-03-24T22:00:30.294Z,85.00
2018-03-24T22:02:35.687Z,84.80
2018-03-24T22:04:40.363Z,84.10
2018-03-24T22:06:43.913Z,83.80
2018-03-24T22:08:47.469Z,83.30
2018-03-24T22:10:52.478Z,86.10
2018-03-24T22:12:56.425Z,85.30
2018-03-24T22:15:01.146Z,85.00
2018-03-24T22:17:04.998Z,85.00
2018-03-24T22:19:08.560Z,85.40
2018-03-24T22:21:12.138Z,86.00
2018-03-24T22:23:16.486Z,85.90
2018-03-24T22:25:20.056Z,85.80
2018-03-24T22:27:23.653Z,84.90
2018-03-24T22:29:27.926Z,85.30
2018-03-24T22:31:36.893Z,85.20
2018-03-24T22:33:41.176Z,85.10
2018-03-24T22:35:45.494Z,86.60
2018-03-24T22:37:49.832Z,85.90
2018-03-24T22:39:53.548Z,85.80
2018-03-24T22:41:58.997Z,85.80
2018-03-24T22:44:03.147Z,85.70
2018-03-24T22:46:06.684Z,86.00
2018-03-24T22:48:10.297Z,86.10
2018-03-24T22:50:13.857Z,85.80
2018-03-24T22:52:18.160Z,85.90
2018-03-24T22:54:24.053Z,86.90
2018-03-24T22:56:28.655Z,86.80
2018-03-24T22:58:33.134Z,86.70
2018-03-24T23:00:38.002Z,86.70
2018-03-24T23:02:41.650Z,86.70
2018-03-24T23:04:45.168Z,87.00
2018-03-24T23:06:49.493Z,86.80
2018-03-24T23:08:53.822Z,83.50
2018-03-24T23:10:57.420Z,83.60
2018-03-24T23:13:00.969Z,86.50
2018-03-24T23:15:05.922Z,86.20
2018-03-24T23:17:10.270Z,86.40
2018-03-24T23:19:13.953Z,86.40
2018-03-24T23:21:17.511Z,86.10
2018-03-24T23:23:21.163Z,86.10
2018-03-24T23:25:24.819Z,85.00
2018-03-24T23:27:28.536Z,86.30
2018-03-24T23:29:32.824Z,84.50
2018-03-24T23:31:37.132Z,86.60
2018-03-24T23:33:41.521Z,86.50
2018-03-24T23:35:45.091Z,86.40
2018-03-24T23:37:48.621Z,86.40
2018-03-24T23:39:52.185Z,86.80
2018-03-24T23:41:55.724Z,86.30
2018-03-24T23:43:59.329Z,87.60
2018-03-24T23:46:02.917Z,87.50
2018-03-24T23:48:06.483Z,87.30
2018-03-24T23:50:10.107Z,85.90
2018-03-24T23:52:13.675Z,86.60
2018-03-24T23:54:17.218Z,86.60
2018-03-24T23:56:21.562Z,86.50
2018-03-24T23:58:25.140Z,86.10
